createdAt,value
2023-05-10T00:02:16.501Z,7.10
2023-05-10T00:04:43.522Z,7.00
2023-05-10T00:07:10.174Z,8.40
2023-05-10T00:09:36.942Z,9.50
2023-05-10T00:12:03.684Z,6.95
2023-05-10T00:14:30.519Z,8.65
2023-05-10T00:16:57.147Z,7.80
2023-05-10T00:19:23.946Z,8.02
2023-05-10T00:21:50.681Z,7.80
2023-05-10T00:24:18.465Z,7.53
2023-05-10T00:26:46.477Z,8.70
2023-05-10T00:29:13.291Z,7.83
2023-05-10T00:31:40.214Z,6.72
2023-05-10T00:34:06.873Z,7.07
2023-05-10T00:36:33.475Z,10.25
2023-05-10T00:39:00.274Z,7.38
2023-05-10T00:41:27.012Z,8.37
2023-05-10T00:43:53.852Z,8.15
2023-05-10T00:46:20.953Z,9.18
2023-05-10T00:48:48.023Z,7.40
2023-05-10T00:51:15.184Z,9.40
2023-05-10T00:53:42.054Z,6.87
2023-05-10T00:56:09.215Z,6.65
2023-05-10T00:58:36.680Z,7.78
2023-05-10T01:01:07.321Z,7.97
2023-05-10T01:03:34.366Z,7.53
2023-05-10T01:06:02.161Z,6.87
2023-05-10T01:08:29.657Z,8.57
2023-05-10T01:10:56.498Z,7.35
2023-05-10T01:13:36.957Z,8.85
2023-05-10T01:16:04.187Z,9.38
2023-05-10T01:18:35.569Z,8.63
2023-05-10T01:21:20.224Z,7.60
2023-05-10T01:24:18.805Z,8.07
2023-05-10T01:27:06.783Z,7.53
2023-05-10T01:30:21.775Z,7.05
2023-05-10T01:33:01.094Z,6.77
2023-05-10T01:35:55.503Z,6.78
2023-05-10T01:38:39.282Z,7.78
2023-05-10T01:41:11.778Z,7.93
2023-05-10T01:43:54.800Z,7.60
2023-05-10T01:46:41.122Z,6.50
2023-05-10T01:49:24.189Z,7.00
2023-05-10T01:51:54.487Z,7.10
2023-05-10T01:54:23.505Z,6.70
2023-05-10T01:57:07.832Z,7.15
2023-05-10T01:59:40.441Z,6.27
2023-05-10T02:02:08.057Z,7.28
2023-05-10T02:04:43.229Z,7.57
2023-05-10T02:07:11.007Z,9.27
2023-05-10T02:09:39.241Z,7.90
2023-05-10T02:12:07.592Z,6.07
2023-05-10T02:14:38.071Z,6.63
2023-05-10T02:17:11.628Z,7.90
2023-05-10T02:19:41.835Z,10.38
2023-05-10T02:22:09.468Z,6.45
2023-05-10T02:24:38.724Z,7.63
2023-05-10T02:27:06.053Z,6.85
2023-05-10T02:29:34.513Z,6.70
2023-05-10T02:32:04.842Z,8.50
2023-05-10T02:34:32.806Z,7.35
2023-05-10T02:37:01.885Z,7.90
2023-05-10T02:39:30.295Z,9.00
2023-05-10T02:41:58.593Z,9.40
2023-05-10T02:44:28.925Z,7.88
2023-05-10T02:46:55.812Z,6.40
2023-05-10T02:49:22.872Z,6.57
2023-05-10T02:51:56.604Z,6.55
2023-05-10T02:54:30.516Z,7.43
2023-05-10T02:57:06.362Z,6.55
2023-05-10T02:59:33.038Z,6.43
2023-05-10T03:02:03.468Z,7.87
2023-05-10T03:04:30.277Z,6.75
2023-05-10T03:06:57.183Z,7.80
2023-05-10T03:09:23.876Z,7.22
2023-05-10T03:12:02.776Z,6.07
2023-05-10T03:14:54.276Z,7.87
2023-05-10T03:17:35.994Z,8.40
2023-05-10T03:20:13.916Z,6.63
2023-05-10T03:22:58.458Z,9.70
2023-05-10T03:25:31.229Z,8.13
2023-05-10T03:28:20.891Z,9.10
2023-05-10T03:31:02.822Z,7.72
2023-05-10T03:33:30.063Z,8.63
2023-05-10T03:35:56.735Z,7.00
2023-05-10T03:38:23.341Z,7.43
2023-05-10T03:40:50.036Z,8.87
2023-05-10T03:43:16.785Z,13.70
2023-05-10T03:45:43.382Z,11.02
2023-05-10T03:48:10.075Z,9.32
2023-05-10T03:50:36.775Z,12.07
2023-05-10T03:53:03.480Z,9.47
2023-05-10T03:55:32.704Z,9.05
2023-05-10T03:57:59.535Z,9.50
2023-05-10T04:00:27.250Z,8.82
2023-05-10T04:02:54.215Z,9.05
2023-05-10T04:05:20.957Z,9.30
2023-05-10T04:07:47.846Z,7.88
2023-05-10T04:10:17.866Z,8.50
2023-05-10T04:12:44.799Z,8.93
2023-05-10T04:15:11.839Z,8.75
2023-05-10T04:17:38.552Z,7.37
2023-05-10T04:20:07.576Z,9.90
2023-05-10T04:22:34.522Z,8.30
2023-05-10T04:25:01.446Z,10.10
2023-05-10T04:27:28.186Z,9.75
2023-05-10T04:29:54.930Z,11.70
2023-05-10T04:32:21.733Z,11.10
2023-05-10T04:34:48.662Z,10.82
2023-05-10T04:37:15.734Z,9.50
2023-05-10T04:39:42.652Z,10.02
2023-05-10T04:42:11.621Z,8.80
2023-05-10T04:44:38.382Z,13.35
2023-05-10T04:47:05.258Z,13.27
2023-05-10T04:49:31.932Z,7.45
2023-05-10T04:51:58.670Z,7.22
2023-05-10T04:54:25.641Z,7.57
2023-05-10T04:56:55.370Z,14.23
2023-05-10T04:59:22.163Z,9.00
2023-05-10T05:01:48.867Z,13.80
2023-05-10T05:04:15.574Z,7.45
2023-05-10T05:06:42.514Z,9.63
2023-05-10T05:09:09.195Z,10.77
2023-05-10T05:11:36.142Z,9.65
2023-05-10T05:14:02.828Z,8.20
2023-05-10T05:16:31.909Z,9.50
2023-05-10T05:18:58.631Z,8.27
2023-05-10T05:21:25.299Z,7.40
2023-05-10T05:23:52.043Z,10.73
2023-05-10T05:26:18.717Z,9.27
2023-05-10T05:28:45.410Z,7.85
2023-05-10T05:31:14.597Z,8.50
2023-05-10T05:33:41.588Z,8.23
2023-05-10T05:36:08.420Z,8.35
2023-05-10T05:38:37.999Z,6.80
2023-05-10T05:41:04.697Z,7.72
2023-05-10T05:43:33.653Z,8.00
2023-05-10T05:46:01.282Z,8.13
2023-05-10T05:48:28.040Z,8.52
2023-05-10T05:50:58.408Z,11.68
2023-05-10T05:53:25.431Z,11.63
2023-05-10T05:55:56.794Z,7.37
2023-05-10T05:58:23.783Z,6.75
2023-05-10T06:00:51.238Z,7.30
2023-05-10T06:03:18.146Z,6.35
2023-05-10T06:05:45.344Z,7.45
2023-05-10T06:08:12.437Z,6.43
2023-05-10T06:10:39.232Z,8.82
2023-05-10T06:13:06.237Z,6.63
2023-05-10T06:15:33.150Z,7.60
2023-05-10T06:18:00.262Z,7.63
2023-05-10T06:20:27.064Z,7.30
2023-05-10T06:22:53.702Z,6.60
2023-05-10T06:25:20.485Z,7.15
2023-05-10T06:27:50.484Z,8.45
2023-05-10T06:30:19.516Z,6.18
2023-05-10T06:32:48.737Z,5.57
2023-05-10T06:35:15.604Z,5.90
2023-05-10T06:37:42.451Z,8.63
2023-05-10T06:40:23.138Z,7.13
2023-05-10T06:42:49.922Z,7.13
2023-05-10T06:45:18.032Z,6.40
2023-05-10T06:47:45.100Z,8.35
2023-05-10T06:50:12.545Z,11.13
2023-05-10T06:52:39.470Z,6.18
2023-05-10T06:55:09.523Z,7.72
2023-05-10T06:57:37.240Z,8.13
2023-05-10T07:00:04.736Z,7.85
2023-05-10T07:02:31.736Z,9.20
2023-05-10T07:05:00.900Z,6.80
2023-05-10T07:07:29.625Z,7.80
2023-05-10T07:09:56.278Z,8.10
2023-05-10T07:12:25.222Z,6.57
2023-05-10T07:14:52.015Z,8.80
2023-05-10T07:17:19.496Z,7.47
2023-05-10T07:19:48.994Z,5.28
2023-05-10T07:22:22.789Z,8.57
2023-05-10T07:24:49.384Z,8.32
2023-05-10T07:27:16.114Z,10.38
2023-05-10T07:29:42.868Z,7.43
2023-05-10T07:32:09.585Z,8.40
2023-05-10T07:34:36.422Z,7.77
2023-05-10T07:37:03.177Z,9.38
2023-05-10T07:39:29.897Z,7.30
2023-05-10T07:41:56.727Z,7.88
2023-05-10T07:44:23.946Z,6.85
2023-05-10T07:46:50.697Z,8.17
2023-05-10T07:49:17.587Z,8.38
2023-05-10T07:51:44.290Z,6.78
2023-05-10T07:54:10.962Z,6.00
2023-05-10T07:56:37.684Z,7.35
2023-05-10T07:59:05.139Z,7.43
2023-05-10T08:01:33.044Z,8.48
2023-05-10T08:03:59.927Z,4.30
2023-05-10T08:06:26.935Z,14.70
2023-05-10T08:08:53.692Z,7.88
2023-05-10T08:11:21.567Z,7.73
2023-05-10T08:13:49.544Z,4.95
2023-05-10T08:16:17.067Z,12.40
2023-05-10T08:18:45.307Z,6.85
2023-05-10T08:21:12.128Z,5.88
2023-05-10T08:23:38.856Z,4.63
2023-05-10T08:26:05.532Z,4.40
2023-05-10T08:28:32.394Z,4.32
2023-05-10T08:30:59.289Z,6.05
2023-05-10T08:33:26.040Z,4.30
2023-05-10T08:35:52.624Z,5.87
2023-05-10T08:38:19.719Z,4.65
2023-05-10T08:40:46.426Z,6.07
2023-05-10T08:43:14.369Z,5.05
2023-05-10T08:45:43.307Z,5.15
2023-05-10T08:48:11.767Z,6.93
2023-05-10T08:50:40.168Z,4.93
2023-05-10T08:53:17.554Z,3.65
2023-05-10T08:55:44.276Z,6.35
2023-05-10T08:58:11.274Z,5.65
2023-05-10T09:00:38.293Z,7.03
2023-05-10T09:03:06.203Z,5.95
2023-05-10T09:05:33.075Z,4.32
2023-05-10T09:07:59.840Z,5.40
2023-05-10T09:10:27.404Z,6.15
2023-05-10T09:12:57.451Z,9.00
2023-05-10T09:15:26.347Z,7.18
2023-05-10T09:17:53.172Z,5.20
2023-05-10T09:20:21.887Z,5.10
2023-05-10T09:22:48.697Z,7.13
2023-05-10T09:25:17.098Z,4.60
2023-05-10T09:27:48.816Z,5.95
2023-05-10T09:30:25.507Z,7.85
2023-05-10T09:32:52.554Z,6.85
2023-05-10T09:35:21.208Z,5.63
2023-05-10T09:37:52.760Z,4.77
2023-05-10T09:40:20.403Z,6.80
2023-05-10T09:43:00.330Z,14.13
2023-05-10T09:45:31.581Z,6.18
2023-05-10T09:48:00.494Z,4.65
2023-05-10T09:50:28.076Z,6.20
2023-05-10T09:53:02.291Z,6.97
2023-05-10T09:55:46.000Z,8.05
2023-05-10T09:58:15.996Z,5.43
2023-05-10T10:00:47.450Z,6.53
2023-05-10T10:03:21.432Z,3.90
2023-05-10T10:05:49.425Z,4.72
2023-05-10T10:08:17.318Z,6.72
2023-05-10T10:10:43.993Z,5.60
2023-05-10T10:13:10.815Z,4.38
2023-05-10T10:15:38.179Z,6.87
2023-05-10T10:18:06.675Z,6.53
2023-05-10T10:20:33.459Z,6.07
2023-05-10T10:23:01.499Z,5.93
2023-05-10T10:25:28.401Z,4.28
2023-05-10T10:27:54.997Z,3.70
2023-05-10T10:30:27.033Z,4.30
2023-05-10T10:33:28.944Z,8.15
2023-05-10T10:35:59.085Z,5.95
2023-05-10T10:38:25.968Z,4.82
2023-05-10T10:41:30.150Z,4.60
2023-05-10T10:44:35.792Z,3.25
2023-05-10T10:47:23.789Z,4.05
2023-05-10T10:50:09.706Z,3.75
2023-05-10T10:52:41.199Z,6.05
2023-05-10T10:55:25.725Z,3.60
2023-05-10T10:57:52.407Z,4.55
2023-05-10T11:00:26.497Z,4.07
2023-05-10T11:03:00.530Z,4.40
2023-05-10T11:05:37.607Z,3.17
2023-05-10T11:08:10.383Z,7.10
2023-05-10T11:10:37.126Z,7.30
2023-05-10T11:13:08.514Z,3.35
2023-05-10T11:15:49.005Z,3.38
2023-05-10T11:18:22.224Z,4.10
2023-05-10T11:21:02.612Z,5.00
2023-05-10T11:23:44.733Z,3.95
2023-05-10T11:26:12.727Z,3.88
2023-05-10T11:28:46.338Z,4.07
2023-05-10T11:31:20.329Z,3.30
2023-05-10T11:33:49.566Z,4.17
2023-05-10T11:36:26.853Z,4.32
2023-05-10T11:38:54.279Z,6.68
2023-05-10T11:41:22.025Z,3.92
2023-05-10T11:43:51.159Z,6.47
2023-05-10T11:46:20.862Z,3.17
2023-05-10T11:48:50.489Z,3.95
2023-05-10T11:51:22.691Z,3.92
2023-05-10T11:53:51.192Z,3.83
2023-05-10T11:56:17.835Z,3.40
2023-05-10T11:58:44.524Z,5.30
2023-05-10T12:01:12.119Z,3.22
2023-05-10T12:03:39.459Z,4.32
2023-05-10T12:06:07.948Z,4.30
2023-05-10T12:08:34.775Z,3.67
2023-05-10T12:11:12.513Z,4.20
2023-05-10T12:13:40.118Z,4.30
2023-05-10T12:16:23.717Z,10.07
2023-05-10T12:18:56.732Z,6.15
2023-05-10T12:21:23.954Z,4.70
2023-05-10T12:23:55.642Z,4.37
2023-05-10T12:26:26.283Z,4.53
2023-05-10T12:28:54.401Z,4.35
2023-05-10T12:31:21.069Z,3.63
2023-05-10T12:33:47.815Z,3.28
2023-05-10T12:36:15.937Z,6.00
2023-05-10T12:38:44.861Z,4.45
2023-05-10T12:41:13.598Z,3.90
2023-05-10T12:43:41.131Z,4.30
2023-05-10T12:46:10.593Z,5.80
2023-05-10T12:48:39.163Z,3.97
2023-05-10T12:51:06.692Z,4.60
2023-05-10T12:53:33.404Z,3.97
2023-05-10T12:56:00.058Z,5.45
2023-05-10T12:58:35.654Z,4.13
2023-05-10T13:01:03.483Z,7.17
2023-05-10T13:03:30.309Z,5.32
2023-05-10T13:05:57.031Z,4.38
2023-05-10T13:08:23.756Z,4.00
2023-05-10T13:10:50.448Z,4.60
2023-05-10T13:13:17.161Z,4.57
2023-05-10T13:15:43.805Z,5.63
2023-05-10T13:18:10.659Z,5.13
2023-05-10T13:20:37.535Z,3.08
2023-05-10T13:23:04.182Z,4.38
2023-05-10T13:25:30.819Z,3.60
2023-05-10T13:27:57.516Z,3.65
2023-05-10T13:30:24.177Z,6.47
2023-05-10T13:32:50.819Z,7.93
2023-05-10T13:35:17.423Z,4.70
2023-05-10T13:37:46.065Z,3.40
2023-05-10T13:40:12.928Z,4.07
2023-05-10T13:42:39.664Z,6.15
2023-05-10T13:45:07.087Z,3.72
2023-05-10T13:47:35.702Z,9.68
2023-05-10T13:50:05.218Z,3.43
2023-05-10T13:52:33.225Z,3.92
2023-05-10T13:54:59.866Z,5.22
2023-05-10T13:57:29.286Z,5.55
2023-05-10T13:59:58.561Z,4.32
2023-05-10T14:02:25.322Z,4.50
2023-05-10T14:04:51.961Z,5.25
2023-05-10T14:07:18.593Z,3.13
2023-05-10T14:09:45.329Z,10.45
2023-05-10T14:12:13.054Z,3.72
2023-05-10T14:14:39.856Z,3.40
2023-05-10T14:17:10.736Z,4.22
2023-05-10T14:19:38.716Z,3.53
2023-05-10T14:22:05.400Z,4.63
2023-05-10T14:24:32.230Z,4.72
2023-05-10T14:26:58.805Z,5.93
2023-05-10T14:29:25.493Z,4.30
2023-05-10T14:31:52.219Z,2.30
2023-05-10T14:34:18.844Z,3.97
2023-05-10T14:36:45.486Z,4.47
2023-05-10T14:39:12.115Z,3.63
2023-05-10T14:41:38.750Z,4.55
2023-05-10T14:44:05.496Z,4.95
2023-05-10T14:46:32.221Z,3.92
2023-05-10T14:48:59.036Z,3.47
2023-05-10T14:51:25.773Z,4.83
2023-05-10T14:53:52.543Z,6.45
2023-05-10T14:56:19.174Z,4.80
2023-05-10T14:58:45.824Z,3.17
2023-05-10T15:01:12.580Z,4.32
2023-05-10T15:03:39.853Z,5.23
2023-05-10T15:06:07.196Z,3.10
2023-05-10T15:08:33.811Z,8.70
2023-05-10T15:11:00.407Z,3.92
2023-05-10T15:13:27.055Z,4.72
2023-05-10T15:15:53.853Z,3.67
2023-05-10T15:18:20.567Z,3.08
2023-05-10T15:20:47.249Z,4.03
2023-05-10T15:23:13.954Z,2.90
2023-05-10T15:25:40.705Z,3.38
2023-05-10T15:28:07.414Z,4.37
2023-05-10T15:30:34.081Z,4.10
2023-05-10T15:33:00.889Z,2.72
2023-05-10T15:35:27.988Z,2.60
2023-05-10T15:37:54.628Z,2.83
2023-05-10T15:40:21.299Z,4.43
2023-05-10T15:42:47.936Z,4.88
2023-05-10T15:45:15.256Z,4.90
2023-05-10T15:47:42.077Z,3.35
2023-05-10T15:50:09.815Z,4.05
2023-05-10T15:52:36.511Z,4.13
2023-05-10T15:55:03.495Z,4.15
2023-05-10T15:57:30.514Z,2.58
2023-05-10T15:59:57.142Z,3.45
2023-05-10T16:02:23.958Z,3.08
2023-05-10T16:04:50.826Z,2.30
2023-05-10T16:07:17.501Z,2.60
2023-05-10T16:09:44.084Z,3.40
2023-05-10T16:12:10.843Z,2.70
2023-05-10T16:14:37.500Z,6.32
2023-05-10T16:17:04.619Z,3.60
2023-05-10T16:19:31.724Z,5.93
2023-05-10T16:21:58.467Z,3.30
2023-05-10T16:24:25.736Z,5.18
2023-05-10T16:26:52.425Z,2.97
2023-05-10T16:29:19.138Z,6.33
2023-05-10T16:31:45.811Z,4.18
2023-05-10T16:34:12.597Z,4.15
2023-05-10T16:36:39.385Z,2.67
2023-05-10T16:39:06.084Z,3.30
2023-05-10T16:41:36.329Z,7.33
2023-05-10T16:44:03.022Z,6.38
2023-05-10T16:46:29.731Z,4.82
2023-05-10T16:48:56.418Z,3.72
2023-05-10T16:51:23.024Z,2.65
2023-05-10T16:53:49.903Z,2.97
2023-05-10T16:56:16.667Z,3.00
2023-05-10T16:58:43.278Z,3.22
2023-05-10T17:01:10.047Z,3.88
2023-05-10T17:03:36.921Z,4.70
2023-05-10T17:06:05.833Z,5.97
2023-05-10T17:08:32.917Z,6.03
2023-05-10T17:11:03.130Z,4.43
2023-05-10T17:13:30.390Z,4.25
2023-05-10T17:15:57.208Z,4.88
2023-05-10T17:18:24.014Z,4.07
2023-05-10T17:20:50.994Z,5.07
2023-05-10T17:23:17.646Z,4.13
2023-05-10T17:25:44.307Z,5.22
2023-05-10T17:28:10.985Z,5.38
2023-05-10T17:30:37.692Z,4.37
2023-05-10T17:33:04.798Z,4.07
2023-05-10T17:35:32.500Z,3.60
2023-05-10T17:37:59.146Z,4.75
2023-05-10T17:40:25.863Z,8.15
2023-05-10T17:42:52.454Z,8.27
2023-05-10T17:45:20.033Z,5.53
2023-05-10T17:47:46.724Z,6.70
2023-05-10T17:50:13.484Z,7.82
2023-05-10T17:52:40.092Z,12.10
2023-05-10T17:55:07.404Z,8.63
2023-05-10T17:57:34.138Z,12.25
2023-05-10T18:00:00.855Z,9.75
2023-05-10T18:02:27.617Z,12.35
2023-05-10T18:04:55.103Z,8.40
2023-05-10T18:07:22.966Z,12.43
2023-05-10T18:09:49.815Z,12.73
2023-05-10T18:12:16.512Z,9.68
2023-05-10T18:14:43.208Z,5.25
2023-05-10T18:17:10.089Z,7.10
2023-05-10T18:19:37.001Z,9.23
2023-05-10T18:22:03.703Z,17.05
2023-05-10T18:27:00.199Z,15.68
2023-05-10T18:29:26.915Z,10.43
2023-05-10T18:31:53.680Z,10.83
2023-05-10T18:34:20.339Z,8.50
2023-05-10T18:36:47.059Z,8.02
2023-05-10T18:39:13.761Z,10.77
2023-05-10T18:41:40.742Z,9.13
2023-05-10T18:44:07.488Z,10.33
2023-05-10T18:46:34.205Z,9.35
2023-05-10T18:49:00.879Z,9.88
2023-05-10T18:51:27.564Z,7.72
2023-05-10T18:53:54.440Z,10.65
2023-05-10T18:56:21.037Z,9.93
2023-05-10T18:58:47.649Z,9.00
2023-05-10T19:01:14.400Z,5.82
2023-05-10T19:03:41.251Z,5.72
2023-05-10T19:06:07.990Z,5.88
2023-05-10T19:08:34.672Z,6.47
2023-05-10T19:11:01.289Z,6.68
2023-05-10T19:13:28.051Z,5.43
2023-05-10T19:16:14.510Z,6.90
2023-05-10T19:18:41.305Z,6.60
2023-05-10T19:21:09.731Z,6.87
2023-05-10T19:23:39.141Z,4.57
2023-05-10T19:26:05.954Z,5.00
2023-05-10T19:28:32.646Z,9.40
2023-05-10T19:30:59.287Z,6.68
2023-05-10T19:33:26.061Z,5.87
2023-05-10T19:35:53.507Z,5.18
2023-05-10T19:38:24.360Z,4.13
2023-05-10T19:40:52.257Z,4.45
2023-05-10T19:43:19.791Z,4.07
2023-05-10T19:45:46.460Z,5.93
2023-05-10T19:48:13.264Z,4.38
2023-05-10T19:50:39.963Z,3.90
2023-05-10T19:53:06.681Z,5.45
2023-05-10T19:55:33.314Z,5.03
2023-05-10T19:57:59.895Z,5.73
2023-05-10T20:00:26.687Z,5.15
2023-05-10T20:02:54.276Z,5.18
2023-05-10T20:05:21.566Z,3.70
2023-05-10T20:07:48.312Z,5.20
2023-05-10T20:10:15.194Z,5.10
2023-05-10T20:12:41.784Z,6.20
2023-05-10T20:15:08.654Z,4.88
2023-05-10T20:17:35.738Z,5.88
2023-05-10T20:20:02.505Z,4.72
2023-05-10T20:22:29.175Z,5.10
2023-05-10T20:24:56.305Z,4.80
2023-05-10T20:27:23.614Z,6.65
2023-05-10T20:29:50.268Z,6.18
2023-05-10T20:32:16.944Z,7.00
2023-05-10T20:34:43.555Z,6.33
2023-05-10T20:37:10.221Z,5.13
2023-05-10T20:39:36.852Z,10.20
2023-05-10T20:42:03.596Z,11.60
2023-05-10T20:44:30.181Z,7.05
2023-05-10T20:46:57.021Z,6.40
2023-05-10T20:49:23.760Z,5.72
2023-05-10T20:51:50.398Z,6.28
2023-05-10T20:54:17.001Z,5.13
2023-05-10T20:56:43.634Z,4.95
2023-05-10T20:59:10.916Z,6.27
2023-05-10T21:01:37.639Z,7.47
2023-05-10T21:04:04.374Z,6.60
2023-05-10T21:06:31.094Z,7.22
2023-05-10T21:08:57.805Z,7.50
2023-05-10T21:11:24.556Z,7.50
2023-05-10T21:13:51.552Z,5.95
2023-05-10T21:16:18.316Z,7.32
2023-05-10T21:18:45.081Z,6.30
2023-05-10T21:21:11.896Z,8.15
2023-05-10T21:23:38.568Z,8.10
2023-05-10T21:26:05.629Z,6.57
2023-05-10T21:28:32.369Z,8.65
2023-05-10T21:30:59.067Z,9.77
2023-05-10T21:33:25.804Z,5.55
2023-05-10T21:35:52.505Z,7.13
2023-05-10T21:38:19.321Z,7.35
2023-05-10T21:40:45.959Z,7.72
2023-05-10T21:43:12.705Z,7.90
2023-05-10T21:45:39.489Z,7.68
2023-05-10T21:48:06.511Z,6.43
2023-05-10T21:50:33.291Z,7.22
2023-05-10T21:53:00.005Z,7.25
2023-05-10T21:55:28.046Z,7.60
2023-05-10T21:57:54.779Z,8.73
2023-05-10T22:00:21.431Z,5.83
2023-05-10T22:02:48.163Z,7.00
2023-05-10T22:05:14.954Z,8.43
2023-05-10T22:07:41.634Z,6.75
2023-05-10T22:10:09.813Z,6.65
2023-05-10T22:12:36.532Z,6.07
2023-05-10T22:17:32.839Z,5.97
2023-05-10T22:19:59.465Z,5.20
2023-05-10T22:22:26.072Z,6.80
2023-05-10T22:24:52.705Z,5.37
2023-05-10T22:27:19.343Z,6.55
2023-05-10T22:29:45.989Z,6.35
2023-05-10T22:32:12.634Z,5.93
2023-05-10T22:34:39.361Z,8.40
2023-05-10T22:37:06.036Z,5.67
2023-05-10T22:39:33.304Z,6.75
2023-05-10T22:42:00.004Z,9.30
2023-05-10T22:44:26.638Z,5.40
2023-05-10T22:46:53.320Z,5.68
2023-05-10T22:49:20.005Z,7.67
2023-05-10T22:51:46.737Z,6.97
2023-05-10T22:54:13.366Z,6.97
2023-05-10T22:56:40.191Z,7.13
2023-05-10T22:59:07.184Z,7.03
2023-05-10T23:01:33.916Z,7.23
2023-05-10T23:04:00.690Z,7.38
2023-05-10T23:06:27.356Z,7.38
2023-05-10T23:08:54.829Z,6.72
2023-05-10T23:11:21.492Z,5.88
2023-05-10T23:13:48.653Z,8.90
2023-05-10T23:16:15.358Z,6.95
2023-05-10T23:18:42.132Z,7.63
2023-05-10T23:21:08.814Z,5.95
2023-05-10T23:23:35.524Z,7.55
2023-05-10T23:26:02.281Z,7.13
2023-05-10T23:28:29.017Z,7.68
2023-05-10T23:30:57.390Z,6.68
2023-05-10T23:33:24.864Z,7.75
2023-05-10T23:35:51.554Z,7.18
2023-05-10T23:38:18.159Z,7.60
2023-05-10T23:40:48.928Z,8.35
2023-05-10T23:43:16.670Z,6.55
2023-05-10T23:45:43.637Z,6.68
2023-05-10T23:48:10.304Z,11.57
2023-05-10T23:50:36.994Z,6.60
2023-05-10T23:53:03.648Z,6.95
2023-05-10T23:56:02.867Z,9.35
2023-05-10T23:58:29.573Z,6.15
